Dane County Regional Truax Field
KMSN : now visible

Airfield :











YOU CAN JOIN US ON...

 
LOGIN :

Register | Disclaimer

   EN    FR    IT 

 









Legend :    VFR   Marginal VFR   IFR   Intensive IFR   Very Intensive IFR
Visi :
Ceiling :
>= 8 km
>= 3000ft
5 to 8 km
1000 to 3000 ft
1500m to 5 km
500 to 1000 ft
800 to 1500m
200 to 500 ft
< 800m
< 200 ft
Symbols :   Thunderstorms  Fog  Heavy snow  Heavy precipitations  Wind > 20 kt






- Airport Elevation : 887 ft
- IATA code : MSN


KMSN - Dane County Regional Truax Field

CURRENT METAR :
  • 240553Z AUTO 14006KT 10SM OVC042 M06/M08 A3014 RMK AO2 SNE06 SLP220 P0000 60001 T10561078 11056 21072 410561178 58020

EXPIRED METARs :
  • 240453Z 13006KT 8SM -SN SCT028 OVC036 M06/M08 A3016 RMK AO2 SLP229 LAST P0001 T10611083
  • 240430Z 13008KT 4SM -SN BR OVC028 M07/M08 A3017 RMK AO2 P0001 T10671083
  • 240353Z 14005KT 2 1/2SM -SN BR OVC026 M07/M09 A3018 RMK AO2 SFC VIS 3 SNB04 SLP238 P0000 T10671089
  • 240344Z 15007KT 2 1/2SM -SN OVC032 M07/M09 A3018 RMK AO2 SFC VIS 3 SNB04 P0000 T10671094
  • 240253Z 14006KT 10SM BKN050 OVC080 M07/M12 A3019 RMK AO2 SNE24 SLP243 P0000 60000 T10721122 58019

TAF KMSN
Valid from the 24 at 06:00 until the 25 at 06:00 UTC


240520Z 2406/2506 13007KT 6SM -SN BR OVC050
FM240800 16008KT 2SM -SN BR OVC030
TEMPO 2408/2412 1SM -SN OVC025
FM241400 17006KT P6SM VCSH OVC010
FM241700 26004KT P6SM OVC009
FM242100 34006KT P6SM BKN011
FM242300 36005KT P6SM BKN035
KZAU FIR / North America



MET'MAP, your aeronautical weather chart ! - Copyright ORBIFLY December 2007 - Disclaimer

ORBIFLY MET'MAP TEAM :

Programming & Development : Alexandra Zaïnal
Concept & original design : Baudouin d'Aumeries
Assistance for programming : Marc-Olivier Méhu
Technical & hardware support : Manuel Goepfert

Contact : metmap@orbifly.com




SOURCES & CREDITS :

   NOAA       Earth
Advisory